createdAt,value
2022-10-09T00:00:03.756Z,114528.25
2022-10-09T00:00:35.759Z,114527.25
2022-10-09T00:01:23.776Z,114536.97
2022-10-09T00:01:55.726Z,114526.84
2022-10-09T00:02:27.687Z,114524.31
2022-10-09T00:02:59.646Z,114521.13
2022-10-09T00:03:32.509Z,114519.38
2022-10-09T00:04:05.939Z,114515.91
2022-10-09T00:04:37.882Z,114519.56
2022-10-09T00:05:09.901Z,114531.81
2022-10-09T00:05:41.912Z,114518.69
2022-10-09T00:06:20.818Z,114521.44
2022-10-09T00:06:52.694Z,114512.06
2022-10-09T00:07:24.698Z,114512.81
2022-10-09T00:07:56.600Z,114511.31
2022-10-09T00:08:28.679Z,114501.03
2022-10-09T00:09:02.265Z,114508.47
2022-10-09T00:09:34.219Z,114508.88
2022-10-09T00:10:06.650Z,114507.91
2022-10-09T00:10:43.651Z,114504.19
2022-10-09T00:11:23.643Z,114506.22
2022-10-09T00:11:55.502Z,114505.88
2022-10-09T00:12:27.415Z,114512.53
2022-10-09T00:12:59.290Z,114504.94
2022-10-09T00:13:31.192Z,114498.66
2022-10-09T00:14:04.188Z,114513.81
2022-10-09T00:14:36.097Z,114503.50
2022-10-09T00:15:08.476Z,114506.41
2022-10-09T00:15:43.297Z,114505.66
2022-10-09T00:16:16.683Z,114503.31
2022-10-09T00:16:48.730Z,114507.16
2022-10-09T00:17:20.698Z,114503.41
2022-10-09T00:17:52.785Z,114505.28
2022-10-09T00:18:25.304Z,114502.00
2022-10-09T00:18:57.751Z,114501.38
2022-10-09T00:19:29.646Z,114495.75
2022-10-09T00:20:01.612Z,114497.25
2022-10-09T00:20:40.974Z,114500.16
2022-10-09T00:21:32.949Z,114505.22
2022-10-09T00:22:04.916Z,114494.25
2022-10-09T00:22:36.806Z,114494.81
2022-10-09T00:23:08.919Z,114503.41
2022-10-09T00:23:40.972Z,114495.81
2022-10-09T00:24:12.865Z,114496.13
2022-10-09T00:24:44.728Z,114500.88
2022-10-09T00:25:16.662Z,114498.34
2022-10-09T00:25:58.962Z,114491.44
2022-10-09T00:26:31.650Z,114500.03
2022-10-09T00:27:03.679Z,114492.16
2022-10-09T00:27:35.834Z,114492.16
2022-10-09T00:28:07.762Z,114490.31
2022-10-09T00:28:39.734Z,114491.66
2022-10-09T00:29:11.651Z,114494.63
2022-10-09T00:29:43.540Z,114486.94
2022-10-09T00:30:15.534Z,114479.13
2022-10-09T00:30:47.483Z,114487.78
2022-10-09T00:31:20.226Z,114498.16
2022-10-09T00:31:52.184Z,114489.00
2022-10-09T00:32:24.939Z,114488.44
2022-10-09T00:32:57.098Z,114492.16
2022-10-09T00:33:29.018Z,114493.47
2022-10-09T00:34:00.886Z,114488.63
2022-10-09T00:34:32.849Z,114478.91
2022-10-09T00:35:05.183Z,114486.69
2022-10-09T00:35:40.221Z,114490.66
2022-10-09T00:36:23.417Z,114497.97
2022-10-09T00:36:55.288Z,114485.94
2022-10-09T00:37:28.863Z,114482.84
2022-10-09T00:38:00.758Z,114480.44
2022-10-09T00:38:32.996Z,114488.00
2022-10-09T00:39:04.879Z,114494.53
2022-10-09T00:39:37.175Z,114491.38
2022-10-09T00:40:09.888Z,114479.25
2022-10-09T00:40:42.550Z,114481.88
2022-10-09T00:41:22.535Z,114476.72
2022-10-09T00:41:54.481Z,114478.63
2022-10-09T00:42:26.533Z,114477.97
2022-10-09T00:42:59.408Z,114487.69
2022-10-09T00:43:59.841Z,114478.25
2022-10-09T00:45:07.212Z,114472.84
2022-10-09T00:45:39.207Z,114487.84
2022-10-09T00:46:28.577Z,114485.00
2022-10-09T00:47:00.525Z,114480.31
2022-10-09T00:47:41.606Z,114484.81
2022-10-09T00:48:13.556Z,114481.06
2022-10-09T00:48:48.408Z,114483.66
2022-10-09T00:49:29.740Z,114480.75
2022-10-09T00:50:23.726Z,114477.91
2022-10-09T00:50:58.625Z,114488.56
2022-10-09T00:51:32.163Z,114482.38
2022-10-09T00:52:07.594Z,114481.34
2022-10-09T00:52:40.464Z,114485.47
2022-10-09T00:53:18.117Z,114485.94
2022-10-09T00:53:50.290Z,114477.34
2022-10-09T00:54:25.851Z,114485.47
2022-10-09T00:54:59.064Z,114472.94
2022-10-09T00:55:34.742Z,114481.06
2022-10-09T00:56:06.886Z,114481.63
2022-10-09T00:56:39.145Z,114474.81
2022-10-09T00:57:11.932Z,114475.38
2022-10-09T00:57:44.184Z,114488.91
2022-10-09T00:58:16.411Z,114479.94
2022-10-09T00:58:54.367Z,114475.16
2022-10-09T00:59:26.948Z,114477.34
2022-10-09T01:00:07.429Z,114480.13
2022-10-09T01:00:40.310Z,114470.41
2022-10-09T01:01:12.371Z,114476.03
2022-10-09T01:01:44.598Z,114471.63
2022-10-09T01:02:16.591Z,114477.91
2022-10-09T01:02:48.885Z,114466.50
2022-10-09T01:03:21.038Z,114469.66
2022-10-09T01:03:52.970Z,114473.44
2022-10-09T01:04:24.865Z,114475.28
2022-10-09T01:04:56.713Z,114467.66
2022-10-09T01:06:08.389Z,114470.19
2022-10-09T01:07:02.593Z,114477.00
2022-10-09T01:07:34.415Z,114470.13
2022-10-09T01:08:17.888Z,114468.00
2022-10-09T01:09:07.433Z,114464.59
2022-10-09T01:10:09.170Z,114458.22
2022-10-09T01:10:57.320Z,114461.59
2022-10-09T01:11:54.973Z,114454.69
2022-10-09T01:12:55.251Z,114462.75
2022-10-09T01:13:57.347Z,114453.56
2022-10-09T01:14:46.490Z,114452.09
2022-10-09T01:15:44.110Z,114442.72
2022-10-09T01:16:50.829Z,114449.28
2022-10-09T01:17:36.654Z,114455.91
2022-10-09T01:18:46.621Z,114450.00
2022-10-09T01:20:11.156Z,114443.66
2022-10-09T01:21:21.790Z,114446.28
2022-10-09T01:22:22.280Z,114450.03
2022-10-09T01:23:15.669Z,114450.28
2022-10-09T01:24:32.280Z,114437.66
2022-10-09T01:25:24.282Z,114441.66
2022-10-09T01:26:25.733Z,114443.25
2022-10-09T01:27:11.283Z,114444.28
2022-10-09T01:27:43.279Z,114432.38
2022-10-09T01:28:16.315Z,114436.84
2022-10-09T01:28:55.906Z,114433.47
2022-10-09T01:29:36.062Z,114436.78
2022-10-09T01:30:13.093Z,114429.94
2022-10-09T01:30:45.967Z,114429.28
2022-10-09T01:31:20.689Z,114432.94
2022-10-09T01:31:53.255Z,114429.38
2022-10-09T01:32:31.942Z,114433.69
2022-10-09T01:33:04.901Z,114424.97
2022-10-09T01:33:37.566Z,114425.47
2022-10-09T01:34:12.359Z,114418.72
2022-10-09T01:34:46.137Z,114429.75
2022-10-09T01:35:18.614Z,114425.03
2022-10-09T01:35:51.526Z,114423.59
2022-10-09T01:36:24.306Z,114425.84
2022-10-09T01:36:58.380Z,114428.44
2022-10-09T01:37:32.163Z,114430.44
2022-10-09T01:38:05.108Z,114419.41
2022-10-09T01:38:39.394Z,114429.38
2022-10-09T01:39:18.094Z,114419.84
2022-10-09T01:39:51.950Z,114418.13
2022-10-09T01:40:25.473Z,114425.34
2022-10-09T01:40:58.810Z,114418.53
2022-10-09T01:41:31.128Z,114423.38
2022-10-09T01:42:03.334Z,114417.97
2022-10-09T01:42:35.433Z,114417.41
2022-10-09T01:43:07.351Z,114424.16
2022-10-09T01:43:40.967Z,114419.84
2022-10-09T01:44:39.175Z,114418.53
2022-10-09T01:45:11.564Z,114421.13
2022-10-09T01:45:45.522Z,114426.19
2022-10-09T01:46:32.388Z,114411.78
2022-10-09T01:47:06.312Z,114420.41
2022-10-09T01:47:38.500Z,114419.84
2022-10-09T01:48:17.163Z,114417.22
2022-10-09T01:49:14.202Z,114418.72
2022-10-09T01:50:01.958Z,114423.50
2022-10-09T01:50:37.449Z,114421.00
2022-10-09T01:51:09.434Z,114415.94
2022-10-09T01:52:01.002Z,114417.59
2022-10-09T01:52:54.837Z,114424.78
2022-10-09T01:53:27.449Z,114419.69
2022-10-09T01:54:02.301Z,114417.78
2022-10-09T01:54:52.812Z,114419.84
2022-10-09T01:55:51.664Z,114411.59
2022-10-09T01:56:25.844Z,114411.97
2022-10-09T01:57:00.044Z,114409.19
2022-10-09T01:57:51.275Z,114406.00
2022-10-09T01:58:44.264Z,114414.25
2022-10-09T01:59:19.937Z,114405.09
2022-10-09T01:59:52.716Z,114410.34
2022-10-09T02:00:25.171Z,114401.63
2022-10-09T02:01:02.961Z,114406.00
2022-10-09T02:01:37.424Z,114403.00
2022-10-09T02:02:10.564Z,114407.94
2022-10-09T02:02:43.965Z,114403.84
2022-10-09T02:03:17.296Z,114411.03
2022-10-09T02:03:51.011Z,114406.00
2022-10-09T02:04:24.596Z,114405.34
2022-10-09T02:04:58.264Z,114409.84
2022-10-09T02:05:32.336Z,114405.09
2022-10-09T02:06:06.695Z,114402.25
2022-10-09T02:06:40.918Z,114399.66
2022-10-09T02:07:12.961Z,114401.88
2022-10-09T02:07:45.335Z,114400.31
2022-10-09T02:08:21.068Z,114399.66
2022-10-09T02:08:54.755Z,114396.66
2022-10-09T02:09:26.708Z,114400.31
2022-10-09T02:10:00.896Z,114397.59
2022-10-09T02:10:34.754Z,114392.09
2022-10-09T02:11:07.625Z,114396.25
2022-10-09T02:11:44.432Z,114394.94
2022-10-09T02:12:18.363Z,114386.72
2022-10-09T02:12:57.899Z,114392.91
2022-10-09T02:13:32.634Z,114398.47
2022-10-09T02:14:04.537Z,114390.53
2022-10-09T02:14:37.122Z,114389.97
2022-10-09T02:15:10.333Z,114394.94
2022-10-09T02:16:07.662Z,114391.78
2022-10-09T02:16:43.141Z,114392.84
2022-10-09T02:17:23.203Z,114387.44
2022-10-09T02:18:01.576Z,114388.19
2022-10-09T02:19:08.895Z,114391.97
2022-10-09T02:20:10.018Z,114390.47
2022-10-09T02:20:51.599Z,114391.28
2022-10-09T02:21:46.543Z,114390.31
2022-10-09T02:22:33.420Z,114392.28
2022-10-09T02:23:08.614Z,114381.34
2022-10-09T02:23:43.751Z,114393.22
2022-10-09T02:24:19.651Z,114387.78
2022-10-09T02:24:52.194Z,114383.31
2022-10-09T02:25:24.781Z,114381.41
2022-10-09T02:25:57.034Z,114385.25
2022-10-09T02:26:29.007Z,114389.19
2022-10-09T02:27:02.305Z,114390.19
2022-10-09T02:27:34.577Z,114390.75
2022-10-09T02:28:07.015Z,114394.09
2022-10-09T02:28:43.857Z,114390.75
2022-10-09T02:29:17.871Z,114380.69
2022-10-09T02:29:50.345Z,114383.78
2022-10-09T02:30:25.334Z,114391.91
2022-10-09T02:31:19.106Z,114381.25
2022-10-09T02:31:51.399Z,114380.69
2022-10-09T02:32:23.824Z,114374.78
2022-10-09T02:32:56.456Z,114376.75
2022-10-09T02:33:32.927Z,114377.06
2022-10-09T02:34:10.578Z,114373.72
2022-10-09T02:34:42.959Z,114372.78
2022-10-09T02:35:14.863Z,114371.13
2022-10-09T02:35:47.518Z,114372.41
2022-10-09T02:36:19.389Z,114377.44
2022-10-09T02:36:51.506Z,114371.47
2022-10-09T02:37:23.420Z,114367.66
2022-10-09T02:37:55.284Z,114376.16
2022-10-09T02:38:27.758Z,114379.91
2022-10-09T02:39:00.253Z,114375.16
2022-10-09T02:39:32.122Z,114374.06
2022-10-09T02:40:09.712Z,114364.94
2022-10-09T02:40:42.547Z,114370.19
2022-10-09T02:41:14.418Z,114367.34
2022-10-09T02:41:46.348Z,114365.84
2022-10-09T02:42:18.654Z,114374.28
2022-10-09T02:42:50.939Z,114356.56
2022-10-09T02:43:23.257Z,114369.03
2022-10-09T02:43:55.472Z,114370.25
2022-10-09T02:44:27.625Z,114364.00
2022-10-09T02:44:59.482Z,114367.53
2022-10-09T02:45:31.345Z,114362.84
2022-10-09T02:46:03.247Z,114360.59
2022-10-09T02:46:37.940Z,114363.22
2022-10-09T02:47:10.036Z,114358.59
2022-10-09T02:47:41.914Z,114360.97
2022-10-09T02:48:13.828Z,114362.84
2022-10-09T02:48:45.879Z,114363.91
2022-10-09T02:49:17.922Z,114366.00
2022-10-09T02:49:49.828Z,114370.41
2022-10-09T02:50:21.720Z,114366.06
2022-10-09T02:50:53.607Z,114367.94
2022-10-09T02:51:26.128Z,114366.00
2022-10-09T02:51:57.993Z,114358.50
2022-10-09T02:52:29.891Z,114364.41
2022-10-09T02:53:01.843Z,114362.84
2022-10-09T02:53:33.883Z,114365.44
2022-10-09T02:54:06.086Z,114361.13
2022-10-09T02:54:38.399Z,114359.22
2022-10-09T02:55:10.314Z,114357.94
2022-10-09T02:55:42.261Z,114357.34
2022-10-09T02:56:14.660Z,114363.53
2022-10-09T02:56:46.552Z,114362.75
2022-10-09T02:57:18.432Z,114365.00
2022-10-09T02:57:50.343Z,114360.59
2022-10-09T02:58:22.209Z,114363.28
2022-10-09T02:58:54.391Z,114361.25
2022-10-09T02:59:26.339Z,114356.00
2022-10-09T02:59:58.194Z,114359.38
2022-10-09T03:00:30.225Z,114366.28
2022-10-09T03:01:02.677Z,114359.44
2022-10-09T03:01:35.202Z,114363.75
2022-10-09T03:02:07.251Z,114361.25
2022-10-09T03:02:39.317Z,114362.59
2022-10-09T03:03:11.261Z,114358.50
2022-10-09T03:03:43.204Z,114353.78
2022-10-09T03:04:15.122Z,114362.53
2022-10-09T03:04:47.024Z,114353.03
2022-10-09T03:05:19.217Z,114354.84
2022-10-09T03:06:01.361Z,114350.53
2022-10-09T03:06:34.273Z,114355.78
2022-10-09T03:07:06.146Z,114351.16
2022-10-09T03:07:38.025Z,114367.22
2022-10-09T03:08:10.144Z,114338.06
2022-10-09T03:08:48.584Z,114361.03
2022-10-09T03:09:20.433Z,114356.66
2022-10-09T03:09:52.804Z,114356.72
2022-10-09T03:10:24.777Z,114362.84
2022-10-09T03:10:57.068Z,114364.28
2022-10-09T03:11:28.977Z,114364.84
2022-10-09T03:12:01.023Z,114352.81
2022-10-09T03:12:32.937Z,114354.03
2022-10-09T03:13:06.002Z,114352.56
2022-10-09T03:13:39.701Z,114361.13
2022-10-09T03:14:11.823Z,114357.59
2022-10-09T03:14:43.762Z,114362.97
2022-10-09T03:15:15.869Z,114356.06
2022-10-09T03:15:47.807Z,114356.66
2022-10-09T03:16:23.702Z,114358.97
2022-10-09T03:16:55.686Z,114350.47
2022-10-09T03:17:27.570Z,114351.97
2022-10-09T03:17:59.468Z,114359.19
2022-10-09T03:18:31.722Z,114361.81
2022-10-09T03:19:03.631Z,114347.06
2022-10-09T03:19:35.509Z,114342.97
2022-10-09T03:20:08.338Z,114353.63
2022-10-09T03:20:40.354Z,114350.25
2022-10-09T03:21:16.948Z,114356.78
2022-10-09T03:21:48.842Z,114353.63
2022-10-09T03:22:20.704Z,114357.09
2022-10-09T03:22:52.579Z,114365.00
2022-10-09T03:23:25.686Z,114352.97
2022-10-09T03:23:57.598Z,114355.66
2022-10-09T03:24:29.516Z,114353.19
2022-10-09T03:25:01.384Z,114354.41
2022-10-09T03:25:33.270Z,114353.81
2022-10-09T03:26:09.396Z,114363.22
2022-10-09T03:26:41.290Z,114350.31
2022-10-09T03:27:13.160Z,114358.88
2022-10-09T03:27:45.023Z,114354.56
2022-10-09T03:28:16.921Z,114362.75
2022-10-09T03:28:51.415Z,114353.94
2022-10-09T03:29:23.784Z,114349.88
2022-10-09T03:29:55.762Z,114346.63
2022-10-09T03:30:27.665Z,114352.31
2022-10-09T03:30:59.587Z,114344.47
2022-10-09T03:31:51.831Z,114344.47
2022-10-09T03:32:23.499Z,114347.84
2022-10-09T03:32:55.411Z,114352.31
2022-10-09T03:33:27.277Z,114348.22
2022-10-09T03:33:59.307Z,114346.13
2022-10-09T03:34:31.174Z,114344.28
2022-10-09T03:35:03.928Z,114350.59
2022-10-09T03:35:35.879Z,114351.97
2022-10-09T03:36:09.653Z,114351.72
2022-10-09T03:36:42.401Z,114355.94
2022-10-09T03:37:14.338Z,114353.47
2022-10-09T03:37:46.239Z,114344.03
2022-10-09T03:38:18.119Z,114344.59
2022-10-09T03:38:50.014Z,114353.78
2022-10-09T03:39:21.906Z,114352.47
2022-10-09T03:39:53.773Z,114353.78
2022-10-09T03:40:25.698Z,114355.56
2022-10-09T03:41:03.829Z,114350.16
2022-10-09T03:41:35.734Z,114348.16
2022-10-09T03:42:07.629Z,114354.25
2022-10-09T03:42:39.499Z,114341.81
2022-10-09T03:43:11.404Z,114345.53
2022-10-09T03:43:43.310Z,114339.22
2022-10-09T03:44:15.178Z,114352.09
2022-10-09T03:44:47.189Z,114343.66
2022-10-09T03:45:19.098Z,114345.84
2022-10-09T03:45:51.560Z,114355.19
2022-10-09T03:46:23.488Z,114348.22
2022-10-09T03:46:55.497Z,114345.13
2022-10-09T03:47:27.384Z,114352.25
2022-10-09T03:47:59.284Z,114343.19
2022-10-09T03:48:31.469Z,114348.47
2022-10-09T03:49:03.429Z,114345.63
2022-10-09T03:49:35.306Z,114345.69
2022-10-09T03:50:07.870Z,114345.13
2022-10-09T03:50:41.437Z,114333.94
2022-10-09T03:51:13.329Z,114343.44
2022-10-09T03:51:45.237Z,114348.47
2022-10-09T03:52:17.138Z,114341.81
2022-10-09T03:52:49.284Z,114343.59
2022-10-09T03:53:21.429Z,114347.84
2022-10-09T03:53:53.327Z,114349.09
2022-10-09T03:54:25.666Z,114344.75
2022-10-09T03:54:57.592Z,114344.97
2022-10-09T03:55:29.478Z,114346.69
2022-10-09T03:56:01.415Z,114350.47
2022-10-09T03:56:33.313Z,114347.06
2022-10-09T03:57:05.192Z,114346.78
2022-10-09T03:57:37.105Z,114352.47
2022-10-09T03:58:09.907Z,114353.19
2022-10-09T03:58:41.798Z,114345.53
2022-10-09T03:59:13.846Z,114350.25
2022-10-09T03:59:45.762Z,114358.13
2022-10-09T04:00:17.805Z,114356.00
2022-10-09T04:00:53.408Z,114349.94
2022-10-09T04:01:25.370Z,114351.16
2022-10-09T04:01:57.410Z,114354.69
2022-10-09T04:02:29.380Z,114351.16
2022-10-09T04:03:01.581Z,114356.28
2022-10-09T04:03:33.534Z,114350.00
2022-10-09T04:04:05.510Z,114346.91
2022-10-09T04:04:37.406Z,114350.69
2022-10-09T04:05:09.530Z,114348.28
2022-10-09T04:05:41.395Z,114345.13
2022-10-09T04:06:13.349Z,114345.69
2022-10-09T04:06:45.617Z,114345.97
2022-10-09T04:07:17.504Z,114351.59
2022-10-09T04:07:49.530Z,114349.78
2022-10-09T04:08:21.455Z,114352.25
2022-10-09T04:08:53.360Z,114355.03
2022-10-09T04:09:25.314Z,114343.69
2022-10-09T04:09:57.221Z,114351.31
2022-10-09T04:10:29.387Z,114352.47
2022-10-09T04:11:02.041Z,114347.44
2022-10-09T04:11:34.018Z,114353.19
2022-10-09T04:12:05.986Z,114355.34
2022-10-09T04:12:38.072Z,114353.41
2022-10-09T04:13:10.243Z,114352.09
2022-10-09T04:13:42.133Z,114354.41
2022-10-09T04:14:13.990Z,114354.25
2022-10-09T04:14:45.985Z,114359.28
2022-10-09T04:15:18.022Z,114351.72
2022-10-09T04:15:54.626Z,114347.38
2022-10-09T04:16:26.625Z,114353.94
2022-10-09T04:16:58.612Z,114351.72
2022-10-09T04:17:30.494Z,114361.25
2022-10-09T04:18:02.798Z,114353.19
2022-10-09T04:18:35.346Z,114355.63
2022-10-09T04:19:07.250Z,114348.72
2022-10-09T04:19:39.138Z,114348.72
2022-10-09T04:20:11.001Z,114345.53
2022-10-09T04:20:51.154Z,114352.41
2022-10-09T04:21:23.086Z,114355.41
2022-10-09T04:21:55.059Z,114345.63
2022-10-09T04:22:26.938Z,114350.66
2022-10-09T04:22:58.855Z,114346.00
2022-10-09T04:23:30.701Z,114351.03
2022-10-09T04:24:03.826Z,114342.22
2022-10-09T04:24:35.782Z,114346.25
2022-10-09T04:25:08.211Z,114352.56
2022-10-09T04:25:40.170Z,114345.06
2022-10-09T04:26:13.440Z,114354.78
2022-10-09T04:26:45.335Z,114350.88
2022-10-09T04:27:17.491Z,114358.38
2022-10-09T04:27:49.431Z,114344.13
2022-10-09T04:28:23.425Z,114357.50
2022-10-09T04:28:55.616Z,114348.72
2022-10-09T04:29:27.477Z,114348.72
2022-10-09T04:29:59.345Z,114344.97
2022-10-09T04:30:31.269Z,114340.06
2022-10-09T04:31:03.143Z,114343.81
2022-10-09T04:31:35.072Z,114347.00
2022-10-09T04:32:07.320Z,114348.84
2022-10-09T04:32:39.202Z,114346.41
2022-10-09T04:33:13.117Z,114346.06
2022-10-09T04:33:45.138Z,114342.03
2022-10-09T04:34:17.095Z,114347.28
2022-10-09T04:34:49.053Z,114340.81
2022-10-09T04:35:20.964Z,114343.22
2022-10-09T04:35:54.992Z,114346.47
2022-10-09T04:36:26.896Z,114343.91
2022-10-09T04:36:58.850Z,114352.09
2022-10-09T04:37:30.705Z,114348.28
2022-10-09T04:38:02.599Z,114343.91
2022-10-09T04:38:34.680Z,114354.88
2022-10-09T04:39:06.864Z,114349.56
2022-10-09T04:39:38.740Z,114345.25
2022-10-09T04:40:11.196Z,114351.53
2022-10-09T04:40:43.082Z,114347.69
2022-10-09T04:41:14.956Z,114337.63
2022-10-09T04:41:46.957Z,114345.25
2022-10-09T04:42:18.844Z,114341.44
2022-10-09T04:42:50.908Z,114337.75
2022-10-09T04:43:23.085Z,114335.19
2022-10-09T04:43:56.657Z,114343.03
2022-10-09T04:44:28.560Z,114348.28
2022-10-09T04:45:00.480Z,114344.38
2022-10-09T04:45:33.017Z,114350.00
2022-10-09T04:46:12.810Z,114347.91
2022-10-09T04:46:44.752Z,114346.41
2022-10-09T12:53:55.893Z,114313.75
2022-10-09T12:54:30.952Z,114318.38
2022-10-09T12:55:02.831Z,114316.59
2022-10-09T12:55:41.693Z,114317.44
2022-10-09T12:56:21.360Z,114318.16
2022-10-09T12:56:56.738Z,114310.59
2022-10-09T12:57:29.570Z,114312.47
2022-10-09T12:58:25.803Z,114314.81
2022-10-09T12:58:59.073Z,114309.69
2022-10-09T12:59:30.981Z,114304.75
2022-10-09T13:00:03.129Z,114304.59
2022-10-09T13:00:35.900Z,114304.84
2022-10-09T13:01:13.335Z,114309.97
2022-10-09T13:01:46.557Z,114299.28
2022-10-09T13:02:20.289Z,114300.03
2022-10-09T13:02:52.554Z,114303.56
2022-10-09T13:03:40.830Z,114295.50
2022-10-09T13:04:32.861Z,114297.06
2022-10-09T13:05:05.186Z,114296.63
2022-10-09T13:05:39.688Z,114297.13
2022-10-09T13:06:16.177Z,114298.91
2022-10-09T13:06:50.530Z,114289.41
2022-10-09T13:07:26.001Z,114288.91
2022-10-09T13:07:57.866Z,114295.09
2022-10-09T13:08:34.735Z,114286.69
2022-10-09T13:09:09.473Z,114289.78
2022-10-09T13:09:41.667Z,114295.53
2022-10-09T13:10:20.753Z,114298.09
2022-10-09T13:10:53.543Z,114291.34
2022-10-09T13:11:38.137Z,114287.13
2022-10-09T13:12:21.011Z,114289.47
2022-10-09T13:12:57.268Z,114287.84
2022-10-09T13:13:29.334Z,114286.69
2022-10-09T13:14:02.077Z,114285.41
2022-10-09T13:14:45.149Z,114280.59
2022-10-09T13:15:36.750Z,114277.75
2022-10-09T13:16:10.756Z,114278.19
2022-10-09T13:16:47.619Z,114279.78
2022-10-09T13:18:23.120Z,114284.91
2022-10-09T13:19:04.512Z,114278.59
2022-10-09T13:19:37.206Z,114273.47
2022-10-09T13:20:23.959Z,114279.03
2022-10-09T13:21:04.851Z,114272.47
2022-10-09T13:21:36.749Z,114272.19
2022-10-09T13:22:18.770Z,114277.47
2022-10-09T13:23:02.933Z,114277.28
2022-10-09T13:23:36.251Z,114281.22
2022-10-09T13:24:13.316Z,114270.34
2022-10-09T13:24:45.314Z,114271.28
2022-10-09T13:25:17.323Z,114274.75
2022-10-09T13:25:49.281Z,114272.19
2022-10-09T13:26:28.773Z,114271.91
2022-10-09T13:27:00.664Z,114272.69
2022-10-09T13:27:38.711Z,114269.84
2022-10-09T13:28:19.251Z,114272.19
2022-10-09T13:28:51.547Z,114272.69
2022-10-09T13:29:23.558Z,114260.53
2022-10-09T13:29:56.324Z,114270.28
2022-10-09T13:30:28.390Z,114266.38
2022-10-09T13:31:08.451Z,114265.66
2022-10-09T13:31:43.969Z,114263.53
2022-10-09T13:32:18.141Z,114262.97
2022-10-09T13:32:50.244Z,114261.63
2022-10-09T13:33:22.256Z,114262.03
2022-10-09T13:33:54.196Z,114262.97
2022-10-09T13:34:28.367Z,114264.41
2022-10-09T13:35:00.247Z,114264.19
2022-10-09T13:35:32.097Z,114259.28
2022-10-09T13:36:04.131Z,114262.28
2022-10-09T13:36:36.023Z,114266.47
2022-10-09T13:37:12.057Z,114253.59
2022-10-09T13:37:43.954Z,114260.31
2022-10-09T13:38:17.957Z,114255.78
2022-10-09T13:38:50.803Z,114263.13
2022-10-09T13:39:22.813Z,114256.16
2022-10-09T13:39:58.719Z,114257.00
2022-10-09T13:40:30.596Z,114257.75
2022-10-09T13:41:02.706Z,114246.84
2022-10-09T13:41:34.634Z,114257.59
2022-10-09T13:42:07.074Z,114246.16
2022-10-09T13:42:39.475Z,114248.19
2022-10-09T13:43:26.085Z,114250.97
2022-10-09T13:43:58.053Z,114247.94
2022-10-09T13:44:29.959Z,114251.47
2022-10-09T13:45:01.819Z,114242.91
2022-10-09T13:45:33.690Z,114246.84
2022-10-09T13:46:05.954Z,114255.19
2022-10-09T13:46:37.932Z,114248.19
2022-10-09T13:47:10.991Z,114244.09
2022-10-09T13:47:42.893Z,114241.53
2022-10-09T13:48:14.919Z,114238.22
2022-10-09T13:48:46.807Z,114246.34
2022-10-09T13:49:18.674Z,114247.41
2022-10-09T13:49:50.669Z,114239.94
2022-10-09T13:50:22.938Z,114239.50
2022-10-09T13:50:54.889Z,114233.88
2022-10-09T13:51:26.740Z,114241.13
2022-10-09T13:51:58.793Z,114240.94
2022-10-09T13:52:30.652Z,114229.75
2022-10-09T13:53:02.829Z,114240.69
2022-10-09T13:53:35.015Z,114238.44
2022-10-09T13:54:07.433Z,114245.13
2022-10-09T13:54:39.350Z,114239.63
2022-10-09T13:55:11.860Z,114235.03
2022-10-09T13:55:44.282Z,114228.09
2022-10-09T13:56:16.190Z,114235.03
2022-10-09T13:56:48.059Z,114235.03
2022-10-09T13:57:19.915Z,114233.22
2022-10-09T13:57:52.224Z,114229.47
2022-10-09T13:58:24.465Z,114231.78
2022-10-09T13:58:56.419Z,114228.09
2022-10-09T13:59:28.517Z,114229.22
2022-10-09T14:00:00.380Z,114222.53
2022-10-09T14:00:32.272Z,114229.78
2022-10-09T14:01:04.472Z,114223.94
2022-10-09T14:01:36.480Z,114221.75
2022-10-09T14:02:10.227Z,114227.75
2022-10-09T14:02:42.266Z,114226.25
2022-10-09T14:03:14.379Z,114214.38
2022-10-09T14:03:46.271Z,114226.56
2022-10-09T14:04:18.672Z,114220.06
2022-10-09T14:04:50.564Z,114226.94
2022-10-09T14:05:22.537Z,114227.66
2022-10-09T14:06:03.134Z,114226.94
2022-10-09T14:06:38.301Z,114219.63
2022-10-09T14:07:10.338Z,114222.63
2022-10-09T14:07:42.358Z,114213.53
2022-10-09T14:08:14.283Z,114218.16
2022-10-09T14:08:46.197Z,114223.25
2022-10-09T14:09:18.076Z,114226.75
2022-10-09T14:09:49.943Z,114217.22
2022-10-09T14:10:23.955Z,114222.34
2022-10-09T14:10:56.360Z,114222.81
2022-10-09T14:11:28.397Z,114219.97
2022-10-09T14:12:00.653Z,114221.84
2022-10-09T14:12:32.676Z,114231.84
2022-10-09T14:13:04.560Z,114220.97
2022-10-09T14:13:36.418Z,114220.25
2022-10-09T14:14:08.486Z,114219.31
2022-10-09T14:14:40.419Z,114221.13
2022-10-09T14:15:12.527Z,114226.03
2022-10-09T14:15:44.493Z,114215.78
2022-10-09T14:16:16.633Z,114216.28
2022-10-09T14:16:48.542Z,114222.81
2022-10-09T14:17:20.445Z,114221.66
2022-10-09T14:17:52.499Z,114209.84
2022-10-09T14:18:24.755Z,114216.78
2022-10-09T14:19:04.524Z,114211.66
2022-10-09T14:19:36.421Z,114214.97
2022-10-09T14:20:08.986Z,114215.66
2022-10-09T14:20:40.929Z,114212.22
2022-10-09T14:21:15.878Z,114215.47
2022-10-09T14:21:47.897Z,114206.72
2022-10-09T14:22:19.863Z,114202.03
2022-10-09T14:22:52.180Z,114205.78
2022-10-09T14:23:24.203Z,114215.06
2022-10-09T14:23:59.910Z,114207.09
2022-10-09T14:24:31.837Z,114202.97
2022-10-09T14:25:04.463Z,114199.78
2022-10-09T14:25:36.414Z,114199.41
2022-10-09T14:26:08.442Z,114207.91
2022-10-09T14:26:41.287Z,114194.44
2022-10-09T14:27:13.175Z,114197.69
2022-10-09T14:27:45.069Z,114196.75
2022-10-09T14:28:17.140Z,114199.78
2022-10-09T14:28:49.699Z,114192.59
2022-10-09T14:29:21.657Z,114198.88
2022-10-09T14:29:56.600Z,114196.75
2022-10-09T14:30:29.326Z,114199.56
2022-10-09T14:31:06.529Z,114190.56
2022-10-09T14:31:38.589Z,114191.94
2022-10-09T14:32:10.474Z,114189.63
2022-10-09T14:32:42.344Z,114188.94
2022-10-09T14:33:14.211Z,114196.34
2022-10-09T14:33:47.880Z,114187.34
2022-10-09T14:34:20.083Z,114196.38
2022-10-09T14:34:52.238Z,114187.81
2022-10-09T14:35:24.409Z,114191.03
2022-10-09T14:35:56.330Z,114183.66
2022-10-09T14:36:29.156Z,114184.34
2022-10-09T14:37:01.020Z,114180.16
2022-10-09T14:37:41.642Z,114187.09
2022-10-09T14:38:14.024Z,114178.25
2022-10-09T14:38:47.966Z,114185.72
2022-10-09T14:39:19.864Z,114188.28
2022-10-09T14:39:53.269Z,114180.63
2022-10-09T14:40:25.146Z,114182.03
2022-10-09T14:40:57.241Z,114177.38
2022-10-09T14:41:33.201Z,114171.31
2022-10-09T14:42:07.427Z,114180.41
2022-10-09T14:42:40.127Z,114176.69
2022-10-09T14:43:12.246Z,114171.31
2022-10-09T14:43:45.492Z,114175.50
2022-10-09T14:44:17.360Z,114183.47
2022-10-09T14:44:49.600Z,114176.72